EGBB/BHX METAR and TAF weather

Enter ICAO airport designator
Station Type Date Time Source
EGBB METAR 2020/04/06 16:50 UTC NOAA

EGBB 061650Z 29009KT 9999 SCT045 15/03 Q1020


Station Type Date Time Source
EGBB Decoded METAR 2020/04/06 16:50 UTC NOAA

Birmingham / Airport, United Kingdom (EGBB) 52-27N 001-44W 0M
Apr 06, 2020 - 12:50 PM EDT / 2020.04.06 1650 UTC
Wind: from the WNW (290 degrees) at 10 MPH (9 KT):0
Visibility: greater than 7 mile(s):0
Sky conditions: partly cloudy
Temperature: 59 F (15 C)
Dew Point: 37 F (3 C)
Relative Humidity: 44%
Pressure (altimeter): 30.12 in. Hg (1020 hPa)
ob: EGBB 061650Z 29009KT 9999 SCT045 15/03 Q1020
cycle: 17

Station Type Date Time Source
EGBB TAF 2020/04/06 18:09 UTC NOAA

TAF EGBB 061655Z 0618/0718 28010KT 9999 SCT045
BECMG 0621/0624 VRB03KT PROB30 0703/0709 8000
BECMG 0709/0712 15010KT

Example: see airport list